sensor_id;sensor_type;location;lat;lon;timestamp;pressure;altitude;pressure_sealevel;temperature;humidity
35226;BME280;21813;49.686;21.766;2023-07-08T00:00:28;98956.41;;;15.21;100.00
35226;BME280;21813;49.686;21.766;2023-07-08T00:03:19;98957.78;;;15.16;100.00
35226;BME280;21813;49.686;21.766;2023-07-08T00:05:46;98964.41;;;15.10;100.00
35226;BME280;21813;49.686;21.766;2023-07-08T00:08:19;98970.19;;;15.04;100.00
35226;BME280;21813;49.686;21.766;2023-07-08T00:10:53;98965.63;;;14.96;100.00
35226;BME280;21813;49.686;21.766;2023-07-08T00:13:35;98959.66;;;14.94;100.00
35226;BME280;21813;49.686;21.766;2023-07-08T00:16:04;98958.16;;;14.92;100.00
35226;BME280;21813;49.686;21.766;2023-07-08T00:19:01;98959.66;;;14.85;100.00
35226;BME280;21813;49.686;21.766;2023-07-08T00:21:32;98958.13;;;14.73;100.00
35226;BME280;21813;49.686;21.766;2023-07-08T00:24:05;98965.81;;;14.65;100.00
35226;BME280;21813;49.686;21.766;2023-07-08T00:26:37;98974.09;;;14.60;100.00
35226;BME280;21813;49.686;21.766;2023-07-08T00:29:02;98967.47;;;14.56;100.00
35226;BME280;21813;49.686;21.766;2023-07-08T00:31:34;98966.03;;;14.52;100.00
35226;BME280;21813;49.686;21.766;2023-07-08T00:34:06;98962.75;;;14.50;100.00
35226;BME280;21813;49.686;21.766;2023-07-08T00:37:01;98966.31;;;14.49;100.00
35226;BME280;21813;49.686;21.766;2023-07-08T00:39:57;98969.06;;;14.47;100.00
35226;BME280;21813;49.686;21.766;2023-07-08T00:42:32;98971.84;;;14.46;100.00
35226;BME280;21813;49.686;21.766;2023-07-08T00:44:59;98963.13;;;14.45;100.00
35226;BME280;21813;49.686;21.766;2023-07-08T00:50:38;98965.44;;;14.39;100.00
35226;BME280;21813;49.686;21.766;2023-07-08T00:58:31;98969.75;;;14.19;100.00
35226;BME280;21813;49.686;21.766;2023-07-08T01:01:02;98972.63;;;14.16;100.00
35226;BME280;21813;49.686;21.766;2023-07-08T01:03:30;98969.56;;;14.11;100.00
35226;BME280;21813;49.686;21.766;2023-07-08T01:05:56;98965.53;;;14.07;100.00
35226;BME280;21813;49.686;21.766;2023-07-08T01:08:37;98969.09;;;14.06;100.00
35226;BME280;21813;49.686;21.766;2023-07-08T01:11:06;98961.50;;;14.03;100.00
35226;BME280;21813;49.686;21.766;2023-07-08T01:13:37;98956.28;;;14.03;100.00
35226;BME280;21813;49.686;21.766;2023-07-08T01:16:07;98957.22;;;14.02;100.00
35226;BME280;21813;49.686;21.766;2023-07-08T01:18:34;98957.22;;;14.02;100.00
35226;BME280;21813;49.686;21.766;2023-07-08T01:21:02;98955.59;;;14.01;100.00
35226;BME280;21813;49.686;21.766;2023-07-08T01:23:34;98964.41;;;14.00;100.00
35226;BME280;21813;49.686;21.766;2023-07-08T01:26:00;98959.41;;;13.97;100.00
35226;BME280;21813;49.686;21.766;2023-07-08T01:28:28;98960.88;;;13.90;100.00
35226;BME280;21813;49.686;21.766;2023-07-08T01:30:57;98968.56;;;13.82;100.00
35226;BME280;21813;49.686;21.766;2023-07-08T01:33:23;98961.47;;;13.73;100.00
35226;BME280;21813;49.686;21.766;2023-07-08T01:35:49;98960.06;;;13.68;100.00
35226;BME280;21813;49.686;21.766;2023-07-08T01:38:25;98963.66;;;13.67;100.00
35226;BME280;21813;49.686;21.766;2023-07-08T01:40:55;98963.66;;;13.67;100.00
35226;BME280;21813;49.686;21.766;2023-07-08T01:43:25;98958.41;;;13.67;100.00
35226;BME280;21813;49.686;21.766;2023-07-08T01:45:50;98966.25;;;13.67;100.00
35226;BME280;21813;49.686;21.766;2023-07-08T01:48:18;98960.19;;;13.67;100.00
35226;BME280;21813;49.686;21.766;2023-07-08T01:50:59;98967.09;;;13.68;100.00
35226;BME280;21813;49.686;21.766;2023-07-08T01:53:32;98958.41;;;13.67;100.00
35226;BME280;21813;49.686;21.766;2023-07-08T01:55:58;98969.00;;;13.66;100.00
35226;BME280;21813;49.686;21.766;2023-07-08T01:58:27;98965.53;;;13.65;100.00
35226;BME280;21813;49.686;21.766;2023-07-08T02:00:53;98966.50;;;13.64;100.00
35226;BME280;21813;49.686;21.766;2023-07-08T02:03:21;98970.09;;;13.63;100.00
35226;BME280;21813;49.686;21.766;2023-07-08T02:06:02;98965.09;;;13.60;100.00
35226;BME280;21813;49.686;21.766;2023-07-08T02:09:23;98966.88;;;13.60;100.00
35226;BME280;21813;49.686;21.766;2023-07-08T02:18:07;98969.94;;;13.65;100.00
35226;BME280;21813;49.686;21.766;2023-07-08T02:36:52;98977.16;;;13.31;100.00
35226;BME280;21813;49.686;21.766;2023-07-08T02:39:19;98978.84;;;13.21;100.00
35226;BME280;21813;49.686;21.766;2023-07-08T02:41:45;98979.31;;;13.15;100.00
35226;BME280;21813;49.686;21.766;2023-07-08T02:44:14;98986.22;;;13.16;100.00
35226;BME280;21813;49.686;21.766;2023-07-08T02:46:40;98981.25;;;13.13;100.00
35226;BME280;21813;49.686;21.766;2023-07-08T02:49:06;98982.88;;;13.14;100.00
35226;BME280;21813;49.686;21.766;2023-07-08T02:51:38;98989.09;;;13.13;100.00
35226;BME280;21813;49.686;21.766;2023-07-08T02:54:18;98992.66;;;13.12;100.00
35226;BME280;21813;49.686;21.766;2023-07-08T03:07:13;98993.22;;;13.04;100.00
35226;BME280;21813;49.686;21.766;2023-07-08T03:09:41;99003.00;;;13.02;100.00
35226;BME280;21813;49.686;21.766;2023-07-08T03:12:12;99000.50;;;13.01;100.00
35226;BME280;21813;49.686;21.766;2023-07-08T03:17:39;98995.72;;;13.06;100.00
35226;BME280;21813;49.686;21.766;2023-07-08T03:20:12;98999.06;;;13.08;100.00
35226;BME280;21813;49.686;21.766;2023-07-08T03:22:44;99000.03;;;13.07;100.00
35226;BME280;21813;49.686;21.766;2023-07-08T03:25:23;99008.72;;;13.07;100.00
35226;BME280;21813;49.686;21.766;2023-07-08T03:27:50;99006.09;;;13.07;100.00
35226;BME280;21813;49.686;21.766;2023-07-08T03:30:17;99000.97;;;13.06;100.00
35226;BME280;21813;49.686;21.766;2023-07-08T03:32:49;99008.81;;;13.06;100.00
35226;BME280;21813;49.686;21.766;2023-07-08T04:09:01;99028.69;;;13.62;100.00
35226;BME280;21813;49.686;21.766;2023-07-08T04:11:27;99023.38;;;13.73;100.00
35226;BME280;21813;49.686;21.766;2023-07-08T04:52:59;99022.06;;;15.40;100.00
35226;BME280;21813;49.686;21.766;2023-07-08T04:55:40;99020.16;;;15.42;100.00
35226;BME280;21813;49.686;21.766;2023-07-08T04:58:12;99020.69;;;15.46;100.00
35226;BME280;21813;49.686;21.766;2023-07-08T05:00:40;99018.53;;;15.51;100.00
35226;BME280;21813;49.686;21.766;2023-07-08T05:03:05;99021.56;;;15.56;100.00
35226;BME280;21813;49.686;21.766;2023-07-08T05:08:30;99016.03;;;15.69;100.00
35226;BME280;21813;49.686;21.766;2023-07-08T05:11:01;99016.31;;;15.75;100.00
35226;BME280;21813;49.686;21.766;2023-07-08T05:13:27;99016.56;;;15.82;100.00
35226;BME280;21813;49.686;21.766;2023-07-08T05:16:13;99023.78;;;15.89;100.00
35226;BME280;21813;49.686;21.766;2023-07-08T05:19:00;99020.84;;;16.02;100.00
35226;BME280;21813;49.686;21.766;2023-07-08T05:21:25;99028.03;;;16.10;100.00
35226;BME280;21813;49.686;21.766;2023-07-08T05:24:04;99027.34;;;16.17;100.00
35226;BME280;21813;49.686;21.766;2023-07-08T05:26:41;99027.75;;;16.22;100.00
35226;BME280;21813;49.686;21.766;2023-07-08T05:29:19;99030.34;;;16.32;100.00
35226;BME280;21813;49.686;21.766;2023-07-08T05:31:45;99031.31;;;16.41;100.00
35226;BME280;21813;49.686;21.766;2023-07-08T05:34:51;99026.69;;;16.52;100.00
35226;BME280;21813;49.686;21.766;2023-07-08T05:37:17;99025.00;;;16.61;100.00
35226;BME280;21813;49.686;21.766;2023-07-08T05:39:58;99028.03;;;16.66;100.00
35226;BME280;21813;49.686;21.766;2023-07-08T05:42:51;99024.41;;;16.76;100.00
35226;BME280;21813;49.686;21.766;2023-07-08T05:45:24;99026.31;;;16.84;100.00
35226;BME280;21813;49.686;21.766;2023-07-08T05:48:05;99028.38;;;16.90;100.00
35226;BME280;21813;49.686;21.766;2023-07-08T05:50:32;99027.91;;;16.95;100.00
35226;BME280;21813;49.686;21.766;2023-07-08T05:52:57;99031.91;;;16.99;100.00
35226;BME280;21813;49.686;21.766;2023-07-08T05:55:34;99027.88;;;17.04;100.00
35226;BME280;21813;49.686;21.766;2023-07-08T05:58:02;99026.16;;;17.13;100.00
35226;BME280;21813;49.686;21.766;2023-07-08T06:00:41;99021.81;;;17.21;100.00
35226;BME280;21813;49.686;21.766;2023-07-08T06:03:10;99024.06;;;17.34;100.00
35226;BME280;21813;49.686;21.766;2023-07-08T06:05:49;99018.72;;;17.44;100.00
35226;BME280;21813;49.686;21.766;2023-07-08T06:08:14;99018.84;;;17.52;100.00
35226;BME280;21813;49.686;21.766;2023-07-08T06:10:41;99015.31;;;17.61;100.00
35226;BME280;21813;49.686;21.766;2023-07-08T06:13:13;99006.78;;;17.67;100.00
35226;BME280;21813;49.686;21.766;2023-07-08T06:15:56;99010.50;;;17.74;100.00
35226;BME280;21813;49.686;21.766;2023-07-08T06:18:29;99009.22;;;17.78;100.00
35226;BME280;21813;49.686;21.766;2023-07-08T06:20:55;99013.72;;;17.86;100.00
35226;BME280;21813;49.686;21.766;2023-07-08T06:23:55;99001.78;;;17.99;100.00
35226;BME280;21813;49.686;21.766;2023-07-08T06:26:20;99009.34;;;18.20;100.00
35226;BME280;21813;49.686;21.766;2023-07-08T06:28:59;99001.34;;;18.30;100.00
35226;BME280;21813;49.686;21.766;2023-07-08T06:31:24;99000.38;;;18.31;100.00
35226;BME280;21813;49.686;21.766;2023-07-08T06:33:52;99013.75;;;18.37;100.00
35226;BME280;21813;49.686;21.766;2023-07-08T06:36:17;99008.69;;;18.44;100.00
35226;BME280;21813;49.686;21.766;2023-07-08T06:38:58;98999.31;;;18.49;99.53
35226;BME280;21813;49.686;21.766;2023-07-08T06:41:26;99010.41;;;18.53;99.14
35226;BME280;21813;49.686;21.766;2023-07-08T06:43:59;99004.47;;;18.59;100.00
35226;BME280;21813;49.686;21.766;2023-07-08T06:46:27;99001.56;;;18.62;99.48
35226;BME280;21813;49.686;21.766;2023-07-08T06:48:57;98995.78;;;18.67;98.94
35226;BME280;21813;49.686;21.766;2023-07-08T06:51:22;98998.78;;;18.72;98.22
35226;BME280;21813;49.686;21.766;2023-07-08T06:54:06;99002.63;;;18.77;96.86
35226;BME280;21813;49.686;21.766;2023-07-08T06:56:45;99004.59;;;18.83;97.79
35226;BME280;21813;49.686;21.766;2023-07-08T06:59:11;99000.34;;;18.90;96.90
35226;BME280;21813;49.686;21.766;2023-07-08T07:01:43;98998.91;;;19.04;96.21
35226;BME280;21813;49.686;21.766;2023-07-08T07:04:10;98997.38;;;19.44;95.88
35226;BME280;21813;49.686;21.766;2023-07-08T07:06:36;98985.00;;;20.01;93.41
35226;BME280;21813;49.686;21.766;2023-07-08T07:09:05;98992.88;;;20.41;92.07
35226;BME280;21813;49.686;21.766;2023-07-08T07:11:31;98998.81;;;20.51;90.36
35226;BME280;21813;49.686;21.766;2023-07-08T07:13:56;98989.56;;;20.47;89.20
35226;BME280;21813;49.686;21.766;2023-07-08T07:16:22;98999.16;;;20.40;90.02
35226;BME280;21813;49.686;21.766;2023-07-08T07:18:48;98996.38;;;20.34;90.74
35226;BME280;21813;49.686;21.766;2023-07-08T07:21:16;98993.38;;;20.28;90.96
35226;BME280;21813;49.686;21.766;2023-07-08T07:23:42;98996.19;;;20.27;90.86
35226;BME280;21813;49.686;21.766;2023-07-08T07:26:10;98998.19;;;20.25;91.62
35226;BME280;21813;49.686;21.766;2023-07-08T07:28:37;98996.19;;;20.27;92.04
35226;BME280;21813;49.686;21.766;2023-07-08T07:31:04;99002.84;;;20.31;92.75
35226;BME280;21813;49.686;21.766;2023-07-08T07:33:38;98996.03;;;20.37;92.75
35226;BME280;21813;49.686;21.766;2023-07-08T07:36:48;98987.59;;;20.41;90.24
35226;BME280;21813;49.686;21.766;2023-07-08T07:45:55;98999.38;;;20.78;88.47
35226;BME280;21813;49.686;21.766;2023-07-08T07:52:39;99005.88;;;21.14;84.40
35226;BME280;21813;49.686;21.766;2023-07-08T07:55:05;98997.53;;;21.25;84.66
35226;BME280;21813;49.686;21.766;2023-07-08T07:57:35;98992.47;;;21.38;84.61
35226;BME280;21813;49.686;21.766;2023-07-08T08:00:07;98996.03;;;21.53;83.86
35226;BME280;21813;49.686;21.766;2023-07-08T08:02:41;98991.41;;;21.70;81.87
35226;BME280;21813;49.686;21.766;2023-07-08T08:05:07;98999.31;;;21.78;81.21
35226;BME280;21813;49.686;21.766;2023-07-08T08:07:44;98991.75;;;21.90;81.44
35226;BME280;21813;49.686;21.766;2023-07-08T08:10:11;98992.00;;;22.03;81.31
35226;BME280;21813;49.686;21.766;2023-07-08T08:12:38;98988.91;;;22.14;80.60
35226;BME280;21813;49.686;21.766;2023-07-08T08:15:13;98984.97;;;22.25;81.06
35226;BME280;21813;49.686;21.766;2023-07-08T08:17:39;98986.66;;;22.40;81.50
35226;BME280;21813;49.686;21.766;2023-07-08T08:20:07;98981.41;;;22.62;80.58
35226;BME280;21813;49.686;21.766;2023-07-08T08:26:04;98985.19;;;22.97;75.77
35226;BME280;21813;49.686;21.766;2023-07-08T08:28:37;98994.53;;;23.07;74.28
35226;BME280;21813;49.686;21.766;2023-07-08T08:31:03;98996.06;;;23.16;75.56
35226;BME280;21813;49.686;21.766;2023-07-08T08:33:39;98992.00;;;23.20;72.10
35226;BME280;21813;49.686;21.766;2023-07-08T08:36:10;98998.22;;;23.27;67.30
35226;BME280;21813;49.686;21.766;2023-07-08T08:38:36;98995.28;;;23.22;66.66
35226;BME280;21813;49.686;21.766;2023-07-08T08:41:18;98990.97;;;23.21;67.13
35226;BME280;21813;49.686;21.766;2023-07-08T08:43:56;98992.84;;;23.21;65.34
35226;BME280;21813;49.686;21.766;2023-07-08T08:51:27;98971.47;;;23.35;61.40
35226;BME280;21813;49.686;21.766;2023-07-08T08:54:12;98981.69;;;23.32;62.23
35226;BME280;21813;49.686;21.766;2023-07-08T08:59:42;98975.28;;;23.26;59.65
35226;BME280;21813;49.686;21.766;2023-07-08T09:05:21;98981.41;;;23.27;58.18
35226;BME280;21813;49.686;21.766;2023-07-08T09:08:02;98978.06;;;23.18;60.20
35226;BME280;21813;49.686;21.766;2023-07-08T09:10:45;98971.03;;;23.11;60.80
35226;BME280;21813;49.686;21.766;2023-07-08T09:13:18;98966.16;;;23.14;62.11
35226;BME280;21813;49.686;21.766;2023-07-08T09:18:58;98971.19;;;23.45;62.07
35226;BME280;21813;49.686;21.766;2023-07-08T09:21:35;98978.13;;;23.61;61.75
35226;BME280;21813;49.686;21.766;2023-07-08T09:24:04;98969.63;;;23.72;64.32
35226;BME280;21813;49.686;21.766;2023-07-08T09:26:33;98977.84;;;23.77;61.50
35226;BME280;21813;49.686;21.766;2023-07-08T09:29:00;98977.38;;;23.67;59.50
35226;BME280;21813;49.686;21.766;2023-07-08T09:31:30;98971.84;;;23.47;61.10
35226;BME280;21813;49.686;21.766;2023-07-08T09:34:13;98975.63;;;23.38;62.23
35226;BME280;21813;49.686;21.766;2023-07-08T09:36:40;98969.72;;;23.43;65.14
35226;BME280;21813;49.686;21.766;2023-07-08T09:39:11;98964.56;;;23.56;65.84
35226;BME280;21813;49.686;21.766;2023-07-08T09:41:40;98965.94;;;23.73;67.38
35226;BME280;21813;49.686;21.766;2023-07-08T09:44:28;98962.00;;;23.90;67.36
35226;BME280;21813;49.686;21.766;2023-07-08T09:46:56;98950.66;;;24.09;65.35
35226;BME280;21813;49.686;21.766;2023-07-08T09:52:12;98953.31;;;24.31;61.37
35226;BME280;21813;49.686;21.766;2023-07-08T09:54:40;98953.66;;;24.21;61.01
35226;BME280;21813;49.686;21.766;2023-07-08T09:57:16;98943.25;;;24.05;60.55
35226;BME280;21813;49.686;21.766;2023-07-08T09:59:57;98953.44;;;23.95;62.03
35226;BME280;21813;49.686;21.766;2023-07-08T10:02:28;98946.47;;;23.94;60.89
35226;BME280;21813;49.686;21.766;2023-07-08T10:04:56;98946.03;;;23.90;60.46
35226;BME280;21813;49.686;21.766;2023-07-08T10:13:49;98927.84;;;24.00;62.49
35226;BME280;21813;49.686;21.766;2023-07-08T10:16:39;98934.22;;;23.99;60.56
35226;BME280;21813;49.686;21.766;2023-07-08T10:19:14;98925.53;;;23.91;61.44
35226;BME280;21813;49.686;21.766;2023-07-08T10:40:53;98930.13;;;24.03;59.55
35226;BME280;21813;49.686;21.766;2023-07-08T10:52:35;98909.09;;;24.43;58.22
35226;BME280;21813;49.686;21.766;2023-07-08T11:05:46;98904.84;;;24.55;54.86
35226;BME280;21813;49.686;21.766;2023-07-08T11:08:27;98912.84;;;24.55;54.39
35226;BME280;21813;49.686;21.766;2023-07-08T11:23:00;98890.66;;;24.48;53.41
35226;BME280;21813;49.686;21.766;2023-07-08T11:25:36;98893.38;;;24.54;52.32
35226;BME280;21813;49.686;21.766;2023-07-08T11:28:08;98889.47;;;24.57;55.21
35226;BME280;21813;49.686;21.766;2023-07-08T11:50:45;98878.56;;;24.99;51.61
35226;BME280;21813;49.686;21.766;2023-07-08T11:59:19;98877.31;;;26.40;46.15
35226;BME280;21813;49.686;21.766;2023-07-08T12:04:33;98866.28;;;27.06;45.63
35226;BME280;21813;49.686;21.766;2023-07-08T12:07:06;98860.09;;;28.11;43.47
35226;BME280;21813;49.686;21.766;2023-07-08T12:12:31;98868.31;;;28.82;37.92
35226;BME280;21813;49.686;21.766;2023-07-08T12:17:41;98863.78;;;28.46;38.32
35226;BME280;21813;49.686;21.766;2023-07-08T12:23:20;98857.59;;;28.09;38.42
35226;BME280;21813;49.686;21.766;2023-07-08T12:25:59;98855.72;;;27.42;41.00
35226;BME280;21813;49.686;21.766;2023-07-08T12:31:29;98846.78;;;26.99;42.33
35226;BME280;21813;49.686;21.766;2023-07-08T12:33:59;98837.72;;;27.24;41.95
35226;BME280;21813;49.686;21.766;2023-07-08T12:36:38;98843.31;;;27.54;40.98
35226;BME280;21813;49.686;21.766;2023-07-08T12:39:03;98838.06;;;27.84;39.74
35226;BME280;21813;49.686;21.766;2023-07-08T12:41:34;98841.72;;;28.08;39.18
35226;BME280;21813;49.686;21.766;2023-07-08T12:44:01;98850.94;;;28.19;38.81
35226;BME280;21813;49.686;21.766;2023-07-08T12:46:41;98841.31;;;28.29;38.15
35226;BME280;21813;49.686;21.766;2023-07-08T12:49:14;98837.03;;;28.40;37.64
35226;BME280;21813;49.686;21.766;2023-07-08T12:51:49;98836.16;;;28.28;37.67
35226;BME280;21813;49.686;21.766;2023-07-08T12:54:27;98832.66;;;28.09;37.96
35226;BME280;21813;49.686;21.766;2023-07-08T12:56:59;98836.84;;;28.23;39.65
35226;BME280;21813;49.686;21.766;2023-07-08T12:59:35;98835.19;;;28.22;37.44
35226;BME280;21813;49.686;21.766;2023-07-08T13:08:41;98839.44;;;27.50;39.43
35226;BME280;21813;49.686;21.766;2023-07-08T13:11:16;98830.69;;;27.80;38.54
35226;BME280;21813;49.686;21.766;2023-07-08T13:13:47;98835.47;;;27.78;38.54
35226;BME280;21813;49.686;21.766;2023-07-08T13:16:21;98838.56;;;27.75;37.78
35226;BME280;21813;49.686;21.766;2023-07-08T13:18:54;98830.47;;;27.99;37.30
35226;BME280;21813;49.686;21.766;2023-07-08T13:21:27;98833.84;;;27.95;37.44
35226;BME280;21813;49.686;21.766;2023-07-08T13:24:21;98832.00;;;27.71;37.51
35226;BME280;21813;49.686;21.766;2023-07-08T13:26:58;98827.91;;;27.43;38.47
35226;BME280;21813;49.686;21.766;2023-07-08T13:29:53;98815.25;;;27.01;38.02
35226;BME280;21813;49.686;21.766;2023-07-08T13:32:20;98827.94;;;26.80;39.59
35226;BME280;21813;49.686;21.766;2023-07-08T13:34:54;98838.47;;;26.69;39.11
35226;BME280;21813;49.686;21.766;2023-07-08T13:37:23;98830.31;;;26.57;38.74
35226;BME280;21813;49.686;21.766;2023-07-08T13:40:07;98828.75;;;26.43;39.52
35226;BME280;21813;49.686;21.766;2023-07-08T13:42:54;98829.84;;;26.29;41.03
35226;BME280;21813;49.686;21.766;2023-07-08T13:45:54;98831.69;;;26.28;41.41
35226;BME280;21813;49.686;21.766;2023-07-08T13:48:28;98841.75;;;26.33;40.80
35226;BME280;21813;49.686;21.766;2023-07-08T13:51:14;98838.47;;;26.31;40.78
35226;BME280;21813;49.686;21.766;2023-07-08T13:53:48;98834.56;;;26.20;40.75
35226;BME280;21813;49.686;21.766;2023-07-08T13:56:19;98831.28;;;26.18;41.13
35226;BME280;21813;49.686;21.766;2023-07-08T14:01:46;98829.06;;;26.22;42.36
35226;BME280;21813;49.686;21.766;2023-07-08T14:04:28;98831.06;;;26.20;43.68
35226;BME280;21813;49.686;21.766;2023-07-08T14:06:56;98827.38;;;26.14;41.90
35226;BME280;21813;49.686;21.766;2023-07-08T14:09:29;98825.53;;;26.15;41.99
35226;BME280;21813;49.686;21.766;2023-07-08T14:12:12;98827.19;;;26.16;41.68
35226;BME280;21813;49.686;21.766;2023-07-08T14:15:04;98830.44;;;26.18;40.85
35226;BME280;21813;49.686;21.766;2023-07-08T14:17:51;98821.03;;;26.09;39.53
35226;BME280;21813;49.686;21.766;2023-07-08T14:20:31;98822.28;;;26.06;39.07
35226;BME280;21813;49.686;21.766;2023-07-08T14:28:12;98816.75;;;26.01;37.88
35226;BME280;21813;49.686;21.766;2023-07-08T14:52:27;98798.44;;;26.05;36.24
35226;BME280;21813;49.686;21.766;2023-07-08T14:59:18;98796.78;;;26.04;37.17
35226;BME280;21813;49.686;21.766;2023-07-08T15:01:47;98800.50;;;26.03;36.51
35226;BME280;21813;49.686;21.766;2023-07-08T15:17:25;98784.28;;;25.98;33.99
35226;BME280;21813;49.686;21.766;2023-07-08T15:34:43;98778.56;;;25.87;35.14
35226;BME280;21813;49.686;21.766;2023-07-08T15:38:51;98776.31;;;25.84;35.46
35226;BME280;21813;49.686;21.766;2023-07-08T15:44:05;98782.88;;;25.88;35.55
35226;BME280;21813;49.686;21.766;2023-07-08T15:46:42;98780.81;;;25.90;35.38
35226;BME280;21813;49.686;21.766;2023-07-08T15:53:46;98777.94;;;25.85;34.10
35226;BME280;21813;49.686;21.766;2023-07-08T15:56:13;98772.59;;;25.85;34.53
35226;BME280;21813;49.686;21.766;2023-07-08T15:58:47;98772.59;;;25.85;33.84
35226;BME280;21813;49.686;21.766;2023-07-08T16:01:27;98782.88;;;25.82;33.50
35226;BME280;21813;49.686;21.766;2023-07-08T16:03:53;98777.53;;;25.82;34.71
35226;BME280;21813;49.686;21.766;2023-07-08T16:06:19;98779.59;;;25.86;33.60
35226;BME280;21813;49.686;21.766;2023-07-08T16:08:45;98783.28;;;25.92;33.81
35226;BME280;21813;49.686;21.766;2023-07-08T16:11:13;98782.88;;;25.88;33.76
35226;BME280;21813;49.686;21.766;2023-07-08T16:13:40;98780.41;;;25.87;35.26
35226;BME280;21813;49.686;21.766;2023-07-08T16:16:11;98776.91;;;25.86;35.05
35226;BME280;21813;49.686;21.766;2023-07-08T16:18:37;98781.22;;;25.87;35.92
35226;BME280;21813;49.686;21.766;2023-07-08T16:21:04;98780.41;;;25.87;36.04
35226;BME280;21813;49.686;21.766;2023-07-08T16:23:30;98779.19;;;25.89;35.37
35226;BME280;21813;49.686;21.766;2023-07-08T16:25:57;98777.53;;;25.88;36.06
35226;BME280;21813;49.686;21.766;2023-07-08T16:28:43;98775.91;;;25.87;35.87
35226;BME280;21813;49.686;21.766;2023-07-08T16:31:15;98782.25;;;25.86;35.18
35226;BME280;21813;49.686;21.766;2023-07-08T16:33:42;98775.28;;;25.85;35.72
35226;BME280;21813;49.686;21.766;2023-07-08T16:36:12;98773.03;;;25.82;35.07
35226;BME280;21813;49.686;21.766;2023-07-08T16:38:42;98781.25;;;25.81;35.86
35226;BME280;21813;49.686;21.766;2023-07-08T16:41:33;98779.63;;;25.80;36.48
35226;BME280;21813;49.686;21.766;2023-07-08T16:44:01;98774.06;;;25.81;36.81
35226;BME280;21813;49.686;21.766;2023-07-08T16:46:34;98776.31;;;25.84;35.82
35226;BME280;21813;49.686;21.766;2023-07-08T16:49:29;98782.69;;;25.83;35.88
35226;BME280;21813;49.686;21.766;2023-07-08T16:52:15;98779.00;;;25.84;35.38
35226;BME280;21813;49.686;21.766;2023-07-08T16:54:46;98780.41;;;25.80;35.48
35226;BME280;21813;49.686;21.766;2023-07-08T16:57:13;98772.25;;;25.75;35.87
35226;BME280;21813;49.686;21.766;2023-07-08T16:59:43;98776.75;;;25.75;36.59
35226;BME280;21813;49.686;21.766;2023-07-08T17:02:16;98775.09;;;25.74;36.77
35226;BME280;21813;49.686;21.766;2023-07-08T17:08:13;98774.28;;;25.73;36.39
35226;BME280;21813;49.686;21.766;2023-07-08T17:13:58;98771.84;;;25.65;35.17
35226;BME280;21813;49.686;21.766;2023-07-08T17:16:30;98768.97;;;25.60;34.71
35226;BME280;21813;49.686;21.766;2023-07-08T17:19:00;98769.41;;;25.57;34.63
35226;BME280;21813;49.686;21.766;2023-07-08T17:21:38;98764.47;;;25.54;34.76
35226;BME280;21813;49.686;21.766;2023-07-08T17:24:10;98771.84;;;25.52;35.17
35226;BME280;21813;49.686;21.766;2023-07-08T17:26:43;98770.19;;;25.51;35.48
35226;BME280;21813;49.686;21.766;2023-07-08T17:29:11;98765.25;;;25.48;35.44
35226;BME280;21813;49.686;21.766;2023-07-08T17:31:39;98772.25;;;25.49;35.88
35226;BME280;21813;49.686;21.766;2023-07-08T17:37:02;98770.63;;;25.41;36.29
35226;BME280;21813;49.686;21.766;2023-07-08T17:39:28;98765.72;;;25.38;36.46
35226;BME280;21813;49.686;21.766;2023-07-08T17:41:59;98770.63;;;25.35;36.49
35226;BME280;21813;49.686;21.766;2023-07-08T17:44:25;98766.13;;;25.29;36.63
35226;BME280;21813;49.686;21.766;2023-07-08T17:47:01;98764.28;;;25.23;36.72
35226;BME280;21813;49.686;21.766;2023-07-08T17:49:29;98764.06;;;25.18;36.97
35226;BME280;21813;49.686;21.766;2023-07-08T17:51:59;98767.16;;;25.15;37.14
35226;BME280;21813;49.686;21.766;2023-07-08T17:54:29;98765.94;;;25.11;37.13
35226;BME280;21813;49.686;21.766;2023-07-08T17:56:59;98769.00;;;25.07;37.28
35226;BME280;21813;49.686;21.766;2023-07-08T17:59:28;98765.28;;;25.02;37.34
35226;BME280;21813;49.686;21.766;2023-07-08T18:02:18;98769.41;;;24.98;37.82
35226;BME280;21813;49.686;21.766;2023-07-08T18:04:43;98768.78;;;24.96;37.91
35226;BME280;21813;49.686;21.766;2023-07-08T18:07:10;98762.22;;;24.92;38.21
35226;BME280;21813;49.686;21.766;2023-07-08T18:09:38;98758.31;;;24.88;38.50
35226;BME280;21813;49.686;21.766;2023-07-08T18:12:07;98759.50;;;24.85;38.50
35226;BME280;21813;49.686;21.766;2023-07-08T18:17:53;98763.19;;;24.71;39.73
35226;BME280;21813;49.686;21.766;2023-07-08T18:20:21;98762.16;;;24.59;40.57
35226;BME280;21813;49.686;21.766;2023-07-08T18:22:51;98756.38;;;24.49;40.62
35226;BME280;21813;49.686;21.766;2023-07-08T18:25:22;98759.44;;;24.39;41.11
35226;BME280;21813;49.686;21.766;2023-07-08T18:27:50;98757.78;;;24.32;41.28
35226;BME280;21813;49.686;21.766;2023-07-08T18:33:39;98753.56;;;24.09;42.64
35226;BME280;21813;49.686;21.766;2023-07-08T18:39:43;98762.19;;;23.70;44.22
35226;BME280;21813;49.686;21.766;2023-07-08T18:42:11;98761.47;;;23.55;44.84
35226;BME280;21813;49.686;21.766;2023-07-08T18:44:42;98760.94;;;23.39;45.90
35226;BME280;21813;49.686;21.766;2023-07-08T18:47:11;98751.84;;;23.26;46.03
35226;BME280;21813;49.686;21.766;2023-07-08T18:49:37;98756.88;;;23.15;45.96
35226;BME280;21813;49.686;21.766;2023-07-08T18:52:04;98757.22;;;23.05;46.22
35226;BME280;21813;49.686;21.766;2023-07-08T18:54:30;98766.34;;;22.96;46.47
35226;BME280;21813;49.686;21.766;2023-07-08T18:57:00;98761.78;;;22.90;47.69
35226;BME280;21813;49.686;21.766;2023-07-08T18:59:25;98771.91;;;22.80;48.41